Time;durP1;ratioP1;P1;durP2;ratioP2;P2;SDS_P1;SDS_P2;PMS_P1;PMS_P2;Temp;Humidity;BMP_temperature;BMP_pressure;BME280_temperature;BME280_humidity;BME280_pressure;Samples;Min_cycle;Max_cycle;Signal;HPM_P1;HPM_P2
2021/06/29 00:01:10;;;;;;;0.20;0.20;;;23.10;99.90;;;;;;4898967;29;20260;-74
2021/06/29 00:03:38;;;;;;;0.20;0.20;;;23.00;99.90;;;;;;4898949;29;20267;-74
2021/06/29 00:06:06;;;;;;;0.20;0.20;;;23.00;99.90;;;;;;4899120;29;20215;-75
2021/06/29 00:08:35;;;;;;;0.20;0.20;;;23.00;99.90;;;;;;4899408;29;20203;-75
2021/06/29 00:11:22;;;;;;;0.20;0.20;;;22.90;99.90;;;;;;4899571;29;20281;-75
2021/06/29 00:13:50;;;;;;;0.20;0.20;;;23.80;99.90;;;;;;4899327;29;20227;-75
2021/06/29 00:16:18;;;;;;;0.20;0.20;;;22.90;99.90;;;;;;4898963;29;20259;-75
2021/06/29 00:18:46;;;;;;;0.20;0.20;;;22.80;99.90;;;;;;4899385;29;20263;-75
2021/06/29 00:21:14;;;;;;;0.20;0.20;;;22.90;99.90;;;;;;4899158;29;20582;-75
2021/06/29 00:23:43;;;;;;;0.20;0.20;;;22.80;99.90;;;;;;4898987;29;20210;-74
2021/06/29 00:26:11;;;;;;;0.10;0.10;;;22.90;99.90;;;;;;4898970;29;20204;-75
2021/06/29 00:28:39;;;;;;;0.20;0.20;;;22.90;99.90;;;;;;4898774;29;20744;-75
2021/06/29 00:31:08;;;;;;;0.20;0.20;;;22.90;99.90;;;;;;4899380;29;20223;-75
2021/06/29 00:33:37;;;;;;;0.20;0.20;;;22.90;99.90;;;;;;4899450;29;20227;-75
2021/06/29 00:36:05;;;;;;;0.10;0.10;;;22.90;99.90;;;;;;4898118;29;20603;-73
2021/06/29 00:38:33;;;;;;;0.20;0.20;;;22.90;99.90;;;;;;4898756;29;20259;-75
2021/06/29 00:41:04;;;;;;;0.20;0.20;;;22.80;99.90;;;;;;4898674;29;20310;-75
2021/06/29 00:43:31;;;;;;;0.20;0.20;;;22.80;99.90;;;;;;4898691;29;20209;-74
2021/06/29 00:45:59;;;;;;;0.20;0.20;;;22.70;99.90;;;;;;4898459;29;20250;-75
2021/06/29 00:48:27;;;;;;;0.10;0.10;;;22.70;99.90;;;;;;4898586;29;20211;-74
2021/06/29 00:50:56;;;;;;;0.20;0.20;;;22.70;99.90;;;;;;4899236;29;20231;-74
2021/06/29 00:53:24;;;;;;;0.20;0.20;;;22.70;99.90;;;;;;4898936;29;20232;-74
2021/06/29 00:55:52;;;;;;;0.20;0.20;;;22.60;99.90;;;;;;4898252;29;20232;-74
2021/06/29 00:58:21;;;;;;;0.20;0.20;;;22.60;99.90;;;;;;4897944;29;20211;-74
2021/06/29 01:00:51;;;;;;;0.20;0.20;;;22.60;99.90;;;;;;4898092;29;20271;-74
2021/06/29 01:03:19;;;;;;;0.20;0.20;;;22.70;99.90;;;;;;4898462;29;20203;-75
2021/06/29 01:05:47;;;;;;;0.20;0.20;;;22.60;99.90;;;;;;4898037;29;20732;-75
2021/06/29 01:08:14;;;;;;;0.20;0.20;;;22.70;99.90;;;;;;4898635;29;20740;-74
2021/06/29 01:10:42;;;;;;;0.20;0.20;;;22.60;99.90;;;;;;4898266;29;20227;-75
2021/06/29 01:13:10;;;;;;;0.20;0.20;;;22.50;99.90;;;;;;4898288;29;20290;-75
2021/06/29 01:15:40;;;;;;;0.20;0.20;;;22.50;99.90;;;;;;4898210;29;20214;-75
2021/06/29 01:18:13;;;;;;;0.20;0.20;;;22.40;99.90;;;;;;4898167;29;20207;-75
2021/06/29 01:20:42;;;;;;;0.20;0.20;;;22.40;99.90;;;;;;4897733;29;20252;-75
2021/06/29 01:23:13;;;;;;;0.20;0.20;;;22.40;99.90;;;;;;4897770;29;20650;-75
2021/06/29 01:25:43;;;;;;;0.20;0.20;;;22.40;99.90;;;;;;4897552;29;20232;-75
2021/06/29 01:28:20;;;;;;;0.20;0.20;;;22.40;99.90;;;;;;4898781;29;20219;-75
2021/06/29 01:31:02;;;;;;;0.20;0.20;;;22.40;99.90;;;;;;4898452;29;20283;-75
2021/06/29 01:33:31;;;;;;;0.20;0.20;;;22.40;99.90;;;;;;4897599;29;20229;-74
2021/06/29 01:36:00;;;;;;;0.20;0.20;;;22.30;99.90;;;;;;4897612;29;20548;-75
2021/06/29 01:38:28;;;;;;;0.20;0.20;;;22.20;99.90;;;;;;4897586;29;20203;-74
2021/06/29 01:40:56;;;;;;;0.20;0.20;;;22.10;99.90;;;;;;4897581;29;20219;-74
2021/06/29 01:43:27;;;;;;;0.20;0.20;;;22.00;99.90;;;;;;4897644;29;20230;-75
2021/06/29 01:45:56;;;;;;;0.20;0.20;;;22.00;99.90;;;;;;4897664;29;20211;-74
2021/06/29 01:48:24;;;;;;;0.20;0.20;;;22.00;99.90;;;;;;4898232;29;20683;-75
2021/06/29 01:50:54;;;;;;;0.20;0.20;;;22.00;99.90;;;;;;4897720;29;20283;-75
2021/06/29 01:53:24;;;;;;;0.20;0.20;;;22.10;99.90;;;;;;4897486;29;20223;-75
2021/06/29 01:55:52;;;;;;;0.20;0.20;;;22.10;99.90;;;;;;4896838;29;20211;-75
2021/06/29 01:58:26;;;;;;;0.20;0.20;;;22.00;99.90;;;;;;4897614;29;20259;-75
2021/06/29 02:00:54;;;;;;;0.20;0.20;;;22.00;99.90;;;;;;4897748;29;20239;-75
2021/06/29 02:03:22;;;;;;;0.20;0.20;;;22.10;99.90;;;;;;4897865;29;20204;-74
2021/06/29 02:05:50;;;;;;;0.20;0.20;;;22.00;99.90;;;;;;4897814;29;20276;-75
2021/06/29 02:08:18;;;;;;;0.20;0.20;;;22.00;99.90;;;;;;4897803;29;20232;-75
2021/06/29 02:10:47;;;;;;;0.20;0.20;;;21.90;99.90;;;;;;4897395;29;20223;-75
2021/06/29 02:13:16;;;;;;;0.20;0.20;;;21.80;99.90;;;;;;4897681;29;20259;-74
2021/06/29 02:15:44;;;;;;;0.20;0.20;;;21.80;99.90;;;;;;4897642;29;20275;-75
2021/06/29 02:18:12;;;;;;;0.20;0.20;;;21.80;99.90;;;;;;4897794;29;20341;-75
2021/06/29 02:20:40;;;;;;;0.20;0.20;;;21.70;99.90;;;;;;4897609;29;20269;-75
2021/06/29 02:23:08;;;;;;;0.20;0.20;;;21.70;99.90;;;;;;4897515;29;20203;-75
2021/06/29 02:25:36;;;;;;;0.20;0.20;;;21.70;99.90;;;;;;4897312;29;20216;-74
2021/06/29 02:28:05;;;;;;;0.20;0.20;;;21.60;99.90;;;;;;4897844;29;20207;-75
2021/06/29 02:30:34;;;;;;;0.20;0.20;;;21.70;99.90;;;;;;4897594;29;20231;-75
2021/06/29 02:33:02;;;;;;;0.20;0.20;;;21.80;99.90;;;;;;4897318;29;20236;-74
2021/06/29 02:35:30;;;;;;;0.20;0.20;;;21.80;99.90;;;;;;4897265;29;20208;-75
2021/06/29 02:37:58;;;;;;;0.20;0.20;;;21.70;99.90;;;;;;4901291;29;20211;-73
2021/06/29 02:40:25;;;;;;;0.20;0.20;;;21.60;99.90;;;;;;4917086;29;20657;-73
2021/06/29 02:42:53;;;;;;;0.20;0.20;;;21.70;99.90;;;;;;4910478;29;20677;-74
2021/06/29 02:45:23;;;;;;;0.20;0.20;;;21.70;99.90;;;;;;4897190;29;20211;-75
2021/06/29 02:47:52;;;;;;;0.20;0.20;;;21.70;99.90;;;;;;4897230;29;20235;-74
2021/06/29 02:50:20;;;;;;;0.20;0.20;;;21.70;99.90;;;;;;4897350;29;20609;-74
2021/06/29 02:52:48;;;;;;;0.20;0.20;;;21.70;99.90;;;;;;4897170;29;20211;-75
2021/06/29 02:55:16;;;;;;;0.20;0.20;;;21.80;99.90;;;;;;4897087;29;20280;-75
2021/06/29 02:57:45;;;;;;;0.20;0.20;;;21.60;99.90;;;;;;4897116;29;20207;-74
2021/06/29 03:00:16;;;;;;;0.20;0.20;;;21.50;99.90;;;;;;4896961;29;20735;-74
2021/06/29 03:02:45;;;;;;;0.20;0.20;;;21.60;99.90;;;;;;4897098;29;20236;-74
2021/06/29 03:05:15;;;;;;;0.20;0.20;;;21.70;99.90;;;;;;4896807;29;20204;-75
2021/06/29 03:07:43;;;;;;;0.20;0.20;;;21.80;99.90;;;;;;4897263;29;20207;-74
2021/06/29 03:10:13;;;;;;;0.20;0.20;;;21.80;99.90;;;;;;4896917;29;20236;-75
2021/06/29 03:12:41;;;;;;;0.20;0.20;;;21.80;99.90;;;;;;4897060;29;20584;-75
2021/06/29 03:15:10;;;;;;;0.20;0.20;;;21.80;99.90;;;;;;4896876;29;20378;-74
2021/06/29 03:17:38;;;;;;;0.20;0.20;;;21.90;99.90;;;;;;4896869;29;20211;-75
2021/06/29 03:20:10;;;;;;;0.20;0.20;;;21.90;99.90;;;;;;4896953;29;20693;-75
2021/06/29 03:22:38;;;;;;;0.20;0.20;;;21.80;99.90;;;;;;4897630;29;20231;-74
2021/06/29 03:25:08;;;;;;;0.20;0.20;;;21.80;99.90;;;;;;4900734;29;20203;-75
2021/06/29 03:27:36;;;;;;;0.20;0.20;;;21.80;99.90;;;;;;4900800;29;20214;-74
2021/06/29 03:30:05;;;;;;;0.20;0.20;;;21.70;99.90;;;;;;4900865;29;20230;-75
2021/06/29 03:32:32;;;;;;;0.20;0.20;;;21.80;99.90;;;;;;4900484;29;20227;-75
2021/06/29 03:35:02;;;;;;;0.20;0.20;;;21.80;99.90;;;;;;4900689;29;20231;-75
2021/06/29 03:37:32;;;;;;;0.20;0.20;;;21.80;99.90;;;;;;4900493;29;20207;-75
2021/06/29 03:39:59;;;;;;;0.20;0.20;;;21.90;99.90;;;;;;4900833;29;20222;-73
2021/06/29 03:42:27;;;;;;;0.20;0.20;;;21.90;99.90;;;;;;4900702;29;20894;-75
2021/06/29 03:44:55;;;;;;;0.20;0.20;;;21.90;99.90;;;;;;4900316;29;20248;-75
2021/06/29 03:47:23;;;;;;;0.20;0.20;;;21.90;99.90;;;;;;4900139;29;20259;-75
2021/06/29 03:49:51;;;;;;;0.20;0.20;;;21.80;99.90;;;;;;4900439;29;20211;-75
2021/06/29 03:52:19;;;;;;;0.20;0.20;;;21.80;99.90;;;;;;4900222;29;20239;-75
2021/06/29 03:54:48;;;;;;;0.20;0.20;;;22.00;99.90;;;;;;4900417;29;20223;-74
2021/06/29 03:57:16;;;;;;;0.20;0.20;;;22.00;99.90;;;;;;4900005;29;20263;-75
2021/06/29 03:59:44;;;;;;;0.20;0.20;;;22.00;99.90;;;;;;4900409;29;20290;-75
2021/06/29 04:02:11;;;;;;;0.20;0.20;;;22.10;99.90;;;;;;4900080;29;20290;-76
2021/06/29 04:04:39;;;;;;;0.20;0.20;;;22.20;99.90;;;;;;4900227;29;20211;-76
2021/06/29 04:07:09;;;;;;;0.20;0.20;;;22.20;99.90;;;;;;4900001;29;20211;-75
2021/06/29 04:09:38;;;;;;;0.20;0.20;;;22.20;99.90;;;;;;4900131;29;20207;-74
2021/06/29 04:12:08;;;;;;;0.20;0.20;;;22.10;99.90;;;;;;4899838;29;20231;-76
2021/06/29 04:14:36;;;;;;;0.20;0.20;;;22.10;99.90;;;;;;4900054;29;20226;-76
2021/06/29 04:17:05;;;;;;;0.20;0.20;;;22.10;99.90;;;;;;4900517;29;20208;-78
2021/06/29 04:19:32;;;;;;;0.20;0.20;;;22.00;99.90;;;;;;4900635;29;20207;-75
2021/06/29 04:22:00;;;;;;;0.30;0.30;;;22.00;99.90;;;;;;4900006;29;20227;-76
2021/06/29 04:24:28;;;;;;;0.20;0.20;;;22.20;99.90;;;;;;4902456;29;20209;-74
2021/06/29 04:26:56;;;;;;;0.20;0.20;;;22.30;99.90;;;;;;4923093;29;20236;-76
2021/06/29 04:29:25;;;;;;;0.20;0.20;;;22.40;99.90;;;;;;4923452;29;20211;-76
2021/06/29 04:31:54;;;;;;;0.20;0.20;;;22.40;99.90;;;;;;4908401;29;20230;-73
2021/06/29 04:34:22;;;;;;;0.20;0.20;;;22.60;99.90;;;;;;4900794;29;20587;-75
2021/06/29 04:36:49;;;;;;;0.20;0.20;;;22.70;99.90;;;;;;4903452;29;20242;-70
2021/06/29 04:39:18;;;;;;;0.20;0.20;;;22.70;99.90;;;;;;4917738;29;20206;-74
2021/06/29 04:41:46;;;;;;;0.20;0.20;;;22.70;99.90;;;;;;4925839;29;20237;-73
2021/06/29 04:44:14;;;;;;;0.20;0.20;;;22.70;99.90;;;;;;4914365;29;20732;-74
2021/06/29 04:46:43;;;;;;;0.20;0.20;;;22.80;99.90;;;;;;4901000;29;20255;-74
2021/06/29 04:49:12;;;;;;;0.10;0.10;;;22.80;99.90;;;;;;4896548;29;20211;-73
2021/06/29 04:51:40;;;;;;;0.20;0.20;;;22.90;99.90;;;;;;4904494;29;20234;-76
2021/06/29 04:54:08;;;;;;;0.20;0.20;;;22.90;99.90;;;;;;4916651;29;20626;-77
2021/06/29 04:56:36;;;;;;;0.20;0.20;;;23.00;99.90;;;;;;4916753;29;20215;-74
2021/06/29 04:59:04;;;;;;;0.20;0.20;;;23.10;99.90;;;;;;4917259;29;20221;-75
2021/06/29 05:01:33;;;;;;;0.20;0.20;;;23.00;99.90;;;;;;4917132;29;20726;-78
2021/06/29 05:04:03;;;;;;;0.20;0.20;;;23.10;99.90;;;;;;4916380;29;20234;-77
2021/06/29 05:06:31;;;;;;;0.20;0.20;;;23.10;99.90;;;;;;4914493;29;20258;-77
2021/06/29 05:08:59;;;;;;;0.20;0.20;;;23.10;99.90;;;;;;4917770;29;20207;-77
2021/06/29 05:11:28;;;;;;;0.20;0.20;;;23.10;99.90;;;;;;4917746;29;20231;-78
2021/06/29 05:13:57;;;;;;;0.20;0.20;;;23.10;99.90;;;;;;4917400;29;20230;-75
2021/06/29 05:16:25;;;;;;;0.20;0.20;;;23.10;99.90;;;;;;4917520;29;20234;-76
2021/06/29 05:18:53;;;;;;;0.30;0.30;;;23.10;99.90;;;;;;4917624;29;20229;-77
2021/06/29 05:21:23;;;;;;;0.10;0.10;;;23.10;99.90;;;;;;4916120;29;20286;-77
2021/06/29 05:23:51;;;;;;;0.20;0.20;;;23.20;99.90;;;;;;4897874;29;20245;-76
2021/06/29 05:26:19;;;;;;;0.20;0.20;;;23.30;99.90;;;;;;4897952;29;20635;-77
2021/06/29 05:28:47;;;;;;;0.20;0.20;;;23.40;99.90;;;;;;4897394;29;20256;-77
2021/06/29 05:31:15;;;;;;;0.20;0.20;;;23.20;99.90;;;;;;4898645;29;20227;-77
2021/06/29 05:33:43;;;;;;;0.20;0.20;;;23.30;99.90;;;;;;4898063;29;20232;-77
2021/06/29 05:36:11;;;;;;;0.20;0.20;;;23.30;99.90;;;;;;4898284;29;20223;-76
2021/06/29 05:38:40;;;;;;;0.20;0.20;;;23.60;99.90;;;;;;4898409;29;20673;-77
2021/06/29 05:41:09;;;;;;;0.20;0.20;;;23.30;99.90;;;;;;4898416;29;20231;-77
2021/06/29 05:43:36;;;;;;;0.20;0.20;;;23.40;99.90;;;;;;4898301;29;20652;-77
2021/06/29 05:46:04;;;;;;;0.20;0.20;;;23.50;99.90;;;;;;4897286;29;20289;-77
2021/06/29 05:48:33;;;;;;;0.10;0.10;;;23.60;99.90;;;;;;4898604;29;20210;-77
2021/06/29 05:51:03;;;;;;;0.20;0.20;;;23.50;99.90;;;;;;4898514;29;20235;-77
2021/06/29 05:53:31;;;;;;;0.10;0.10;;;23.50;99.90;;;;;;4898388;29;20211;-77
2021/06/29 05:56:00;;;;;;;0.20;0.20;;;23.50;99.90;;;;;;4897918;29;20266;-77
2021/06/29 05:58:28;;;;;;;0.20;0.20;;;23.40;99.90;;;;;;4898911;29;20216;-77
2021/06/29 06:00:56;;;;;;;0.20;0.20;;;23.40;99.90;;;;;;4899032;29;20236;-77
2021/06/29 06:03:24;;;;;;;0.20;0.20;;;23.40;99.90;;;;;;4898008;29;20232;-77
2021/06/29 06:05:53;;;;;;;0.20;0.20;;;23.40;99.90;;;;;;4897885;29;20254;-77
2021/06/29 06:08:21;;;;;;;0.20;0.20;;;23.30;99.90;;;;;;4897995;29;20259;-77
2021/06/29 06:10:49;;;;;;;0.20;0.20;;;23.40;99.90;;;;;;4897941;29;20310;-77
2021/06/29 06:13:18;;;;;;;0.20;0.20;;;23.30;99.90;;;;;;4900028;29;20203;-77
2021/06/29 06:15:46;;;;;;;0.20;0.20;;;23.40;99.90;;;;;;4899652;29;20256;-77
2021/06/29 06:18:14;;;;;;;0.20;0.20;;;23.40;99.90;;;;;;4897855;29;20207;-77
2021/06/29 06:20:42;;;;;;;0.20;0.20;;;23.40;99.90;;;;;;4897552;29;20708;-77
2021/06/29 06:23:10;;;;;;;0.20;0.20;;;23.40;99.90;;;;;;4897648;29;20267;-77
2021/06/29 06:25:37;;;;;;;0.20;0.20;;;23.40;99.90;;;;;;4897871;29;20657;-75
2021/06/29 06:28:06;;;;;;;0.20;0.20;;;23.40;99.90;;;;;;4897872;29;20207;-74
2021/06/29 06:30:37;;;;;;;0.20;0.20;;;23.40;99.90;;;;;;4897568;29;20231;-75
2021/06/29 06:33:05;;;;;;;0.20;0.20;;;23.50;99.90;;;;;;4897511;29;20247;-75
2021/06/29 06:35:33;;;;;;;0.20;0.20;;;23.40;99.90;;;;;;4897458;29;20223;-76
2021/06/29 06:38:02;;;;;;;0.15;0.15;;;23.50;99.90;;;;;;4897500;29;20210;-75
2021/06/29 06:40:30;;;;;;;0.10;0.10;;;23.50;99.90;;;;;;4897459;29;20259;-75
2021/06/29 06:42:58;;;;;;;0.28;0.28;;;23.40;99.90;;;;;;4897336;29;20278;-76
2021/06/29 06:45:26;;;;;;;0.20;0.20;;;23.50;99.90;;;;;;4897155;29;20259;-75
2021/06/29 06:47:55;;;;;;;0.20;0.20;;;23.60;99.90;;;;;;4897174;29;20207;-75
2021/06/29 06:50:23;;;;;;;0.20;0.20;;;23.60;99.90;;;;;;4897235;29;20210;-75
2021/06/29 06:52:51;;;;;;;0.20;0.20;;;23.60;99.90;;;;;;4897114;29;20226;-76
2021/06/29 06:55:24;;;;;;;0.20;0.20;;;23.60;99.90;;;;;;4897066;29;20633;-76
2021/06/29 06:57:53;;;;;;;0.20;0.20;;;23.60;99.90;;;;;;4897004;29;20259;-76
2021/06/29 07:00:22;;;;;;;0.20;0.20;;;23.70;99.90;;;;;;4896861;29;20203;-75
2021/06/29 07:02:50;;;;;;;0.20;0.20;;;23.80;99.90;;;;;;4896985;29;20203;-76
2021/06/29 07:05:19;;;;;;;0.20;0.20;;;24.00;99.90;;;;;;4897181;29;20203;-76
2021/06/29 07:07:47;;;;;;;0.20;0.20;;;24.00;99.90;;;;;;4896940;29;20207;-76
2021/06/29 07:10:15;;;;;;;0.20;0.20;;;24.20;99.90;;;;;;4897295;29;20584;-76
2021/06/29 07:12:43;;;;;;;0.20;0.20;;;24.20;99.90;;;;;;4897044;29;20207;-75
2021/06/29 07:15:12;;;;;;;0.20;0.20;;;24.10;99.90;;;;;;4896872;29;20208;-75
2021/06/29 07:17:40;;;;;;;0.20;0.20;;;24.00;99.90;;;;;;4896656;29;20657;-76
2021/06/29 07:20:09;;;;;;;0.20;0.20;;;24.20;99.90;;;;;;4897297;29;20207;-75
2021/06/29 07:22:39;;;;;;;0.20;0.20;;;24.10;99.90;;;;;;4896834;29;20612;-75
2021/06/29 07:25:09;;;;;;;0.20;0.20;;;24.10;99.90;;;;;;4896866;29;20858;-75
2021/06/29 07:27:36;;;;;;;0.20;0.20;;;24.10;99.90;;;;;;4896634;29;20207;-75
2021/06/29 07:30:05;;;;;;;0.20;0.20;;;24.20;99.90;;;;;;4896874;29;20207;-75
2021/06/29 07:32:33;;;;;;;0.20;0.20;;;24.20;99.90;;;;;;4896837;29;20312;-75
2021/06/29 07:35:02;;;;;;;0.20;0.20;;;24.40;99.90;;;;;;4896927;29;20211;-75
2021/06/29 07:37:32;;;;;;;0.20;0.20;;;24.50;99.90;;;;;;4896487;29;20257;-75
2021/06/29 07:40:02;;;;;;;0.20;0.20;;;24.60;99.90;;;;;;4896806;29;20203;-75
2021/06/29 07:42:30;;;;;;;0.10;0.10;;;24.70;99.90;;;;;;4896483;29;20227;-75
2021/06/29 07:44:57;;;;;;;0.20;0.20;;;25.00;99.90;;;;;;4897059;29;20259;-75
2021/06/29 07:47:25;;;;;;;0.20;0.20;;;25.20;99.90;;;;;;4896394;29;20211;-74
2021/06/29 07:49:53;;;;;;;0.20;0.20;;;25.50;99.90;;;;;;4896766;29;20207;-75
2021/06/29 07:52:21;;;;;;;0.20;0.20;;;25.50;99.20;;;;;;4896622;29;20688;-75
2021/06/29 07:54:49;;;;;;;0.10;0.10;;;25.70;99.50;;;;;;4896830;29;20246;-75
2021/06/29 07:57:18;;;;;;;0.10;0.10;;;25.80;99.00;;;;;;4896195;29;20227;-75
2021/06/29 07:59:46;;;;;;;0.10;0.10;;;25.90;98.70;;;;;;4896731;29;20259;-75
2021/06/29 08:02:14;;;;;;;0.10;0.10;;;25.90;98.40;;;;;;4896352;29;20235;-75
2021/06/29 08:04:43;;;;;;;0.10;0.10;;;25.90;98.00;;;;;;4896669;29;20212;-75
2021/06/29 08:07:11;;;;;;;0.10;0.10;;;26.00;98.00;;;;;;4896284;29;20207;-75
2021/06/29 08:09:39;;;;;;;0.10;0.10;;;25.90;96.70;;;;;;4898709;29;20654;-75
2021/06/29 08:12:16;;;;;;;0.20;0.20;;;26.00;96.90;;;;;;4900184;29;20599;-75
2021/06/29 08:14:45;;;;;;;0.20;0.20;;;25.90;97.20;;;;;;4900305;29;20687;-75
2021/06/29 08:17:13;;;;;;;0.10;0.10;;;25.90;97.60;;;;;;4899889;29;20259;-75
2021/06/29 08:19:41;;;;;;;0.10;0.10;;;25.90;97.70;;;;;;4899819;29;20230;-75
2021/06/29 08:22:09;;;;;;;0.20;0.20;;;25.80;97.00;;;;;;4899709;29;20231;-76
2021/06/29 08:24:37;;;;;;;0.10;0.10;;;25.80;96.80;;;;;;4899751;29;20262;-75
2021/06/29 08:27:06;;;;;;;0.10;0.10;;;25.80;96.90;;;;;;4899688;29;20207;-75
2021/06/29 08:29:33;;;;;;;0.10;0.10;;;25.90;96.60;;;;;;4899633;29;20640;-75
2021/06/29 08:32:03;;;;;;;0.10;0.10;;;26.10;96.80;;;;;;4899597;29;20275;-75
2021/06/29 08:34:31;;;;;;;0.20;0.20;;;26.20;96.50;;;;;;4899657;29;20250;-75
2021/06/29 08:36:59;;;;;;;0.20;0.20;;;26.30;96.30;;;;;;4899451;29;20307;-75
2021/06/29 08:39:27;;;;;;;0.10;0.10;;;26.40;96.00;;;;;;4899562;29;20203;-75
2021/06/29 08:41:55;;;;;;;0.10;0.10;;;26.40;95.90;;;;;;4899388;29;20779;-75
2021/06/29 08:44:26;;;;;;;0.10;0.10;;;26.50;95.50;;;;;;4899415;29;20207;-75
2021/06/29 08:46:54;;;;;;;0.10;0.10;;;26.50;95.20;;;;;;4899181;29;20203;-76
2021/06/29 08:49:23;;;;;;;0.10;0.10;;;26.30;95.50;;;;;;4899515;29;20204;-75
2021/06/29 08:51:52;;;;;;;0.10;0.10;;;26.50;96.00;;;;;;4899360;29;20354;-75
2021/06/29 08:54:23;;;;;;;0.10;0.10;;;26.70;99.90;;;;;;4899227;29;20258;-76
2021/06/29 08:56:51;;;;;;;0.10;0.10;;;26.70;95.20;;;;;;4899013;29;20255;-75
2021/06/29 08:59:18;;;;;;;0.10;0.10;;;26.70;94.80;;;;;;4899051;29;20632;-75
2021/06/29 09:01:46;;;;;;;0.10;0.10;;;26.70;94.30;;;;;;4898970;29;20295;-75
2021/06/29 09:04:14;;;;;;;0.10;0.10;;;26.80;95.00;;;;;;4898958;29;20203;-76
2021/06/29 09:06:44;;;;;;;0.10;0.10;;;26.70;94.70;;;;;;4898949;29;20283;-75
2021/06/29 09:09:23;;;;;;;0.10;0.10;;;26.70;94.50;;;;;;4898932;29;20271;-75
2021/06/29 09:11:51;;;;;;;0.10;0.10;;;26.70;94.20;;;;;;4898911;29;20279;-75
2021/06/29 09:14:20;;;;;;;0.10;0.10;;;26.90;94.10;;;;;;4899006;29;20263;-75
2021/06/29 09:16:48;;;;;;;0.10;0.10;;;26.90;94.40;;;;;;4898724;29;20654;-75
2021/06/29 09:19:37;;;;;;;0.10;0.10;;;27.10;94.90;;;;;;4898609;29;20703;-75
2021/06/29 09:22:29;;;;;;;0.10;0.10;;;27.10;93.60;;;;;;4898093;29;20227;-75
2021/06/29 09:24:58;;;;;;;0.10;0.10;;;27.30;93.50;;;;;;4898762;29;20207;-75
2021/06/29 09:27:42;;;;;;;0.10;0.10;;;27.20;93.40;;;;;;4898601;29;20200;-75
2021/06/29 09:30:30;;;;;;;0.10;0.10;;;27.30;93.40;;;;;;4898497;29;20680;-75
2021/06/29 09:33:01;;;;;;;0.10;0.10;;;27.30;93.50;;;;;;4898798;29;20215;-76
2021/06/29 09:35:29;;;;;;;0.10;0.10;;;27.30;93.10;;;;;;4898409;29;20212;-75
2021/06/29 09:38:01;;;;;;;0.10;0.10;;;27.20;92.90;;;;;;4898503;29;20235;-76
2021/06/29 09:40:31;;;;;;;0.10;0.10;;;27.30;99.90;;;;;;4898247;29;20617;-75
2021/06/29 09:43:10;;;;;;;0.10;0.10;;;;;;;;;;4898543;29;20577;-76
2021/06/29 09:45:41;;;;;;;0.10;0.10;;;27.60;92.00;;;;;;4898233;29;20226;-75
2021/06/29 09:48:10;;;;;;;0.10;0.10;;;27.60;92.70;;;;;;4898655;29;20188;-75
2021/06/29 09:50:41;;;;;;;0.10;0.10;;;27.70;92.70;;;;;;4898295;29;20223;-76
2021/06/29 09:53:25;;;;;;;0.20;0.20;;;27.90;91.40;;;;;;4898319;29;20207;-75
2021/06/29 09:55:55;;;;;;;0.10;0.10;;;28.00;91.80;;;;;;4897883;29;20211;-75
2021/06/29 09:58:24;;;;;;;0.10;0.10;;;28.00;92.70;;;;;;4898170;29;20295;-75
2021/06/29 10:00:54;;;;;;;0.10;0.10;;;27.90;92.90;;;;;;4898014;29;20235;-76
2021/06/29 10:03:32;;;;;;;0.10;0.10;;;28.00;93.10;;;;;;4897884;29;20267;-75
2021/06/29 10:06:02;;;;;;;0.10;0.10;;;28.10;94.00;;;;;;4897671;29;20676;-76
2021/06/29 10:08:33;;;;;;;0.10;0.10;;;28.20;93.30;;;;;;4898021;29;20350;-76
2021/06/29 10:11:31;;;;;;;0.10;0.10;;;28.20;92.90;;;;;;4897987;29;20234;-76
2021/06/29 10:14:02;;;;;;;0.10;0.10;;;28.20;92.80;;;;;;4896380;29;20568;-75
2021/06/29 10:16:32;;;;;;;0.10;0.10;;;28.20;92.80;;;;;;4897763;29;20192;-75
2021/06/29 10:19:14;;;;;;;0.10;0.10;;;28.20;93.10;;;;;;4897811;29;20286;-76
2021/06/29 10:21:44;;;;;;;0.10;0.10;;;28.20;92.10;;;;;;4897841;29;20310;-75
2021/06/29 10:24:16;;;;;;;0.10;0.10;;;28.00;99.50;;;;;;4897660;29;20259;-75
2021/06/29 10:26:45;;;;;;;0.10;0.10;;;28.30;93.30;;;;;;4897583;29;20241;-76
2021/06/29 10:29:16;;;;;;;0.10;0.10;;;28.50;92.20;;;;;;4897787;29;20212;-75
2021/06/29 10:31:45;;;;;;;0.10;0.10;;;28.70;92.00;;;;;;4897311;29;20231;-75
2021/06/29 10:34:15;;;;;;;0.10;0.10;;;28.70;91.50;;;;;;4897800;29;20215;-75
2021/06/29 10:36:46;;;;;;;0.10;0.10;;;28.60;91.30;;;;;;4897297;29;20203;-75
2021/06/29 10:39:19;;;;;;;0.10;0.10;;;28.40;91.40;;;;;;4897380;29;20731;-76
2021/06/29 10:41:49;;;;;;;0.10;0.10;;;28.10;91.60;;;;;;4897499;29;20302;-75
2021/06/29 10:44:19;;;;;;;0.10;0.10;;;28.10;92.30;;;;;;4897548;29;20263;-75
2021/06/29 10:46:49;;;;;;;0.10;0.10;;;27.80;92.30;;;;;;4897207;29;20204;-75
2021/06/29 10:49:29;;;;;;;0.10;0.10;;;27.70;93.10;;;;;;4897662;29;20203;-75
2021/06/29 10:51:59;;;;;;;0.10;0.10;;;27.60;93.20;;;;;;4897050;29;20231;-75
2021/06/29 10:54:43;;;;;;;0.10;0.10;;;27.60;93.10;;;;;;4897161;29;20207;-76
2021/06/29 10:57:15;;;;;;;0.10;0.10;;;27.60;93.50;;;;;;4897152;29;20214;-75
2021/06/29 10:59:46;;;;;;;0.10;0.10;;;27.60;93.20;;;;;;4897054;29;20262;-75
2021/06/29 11:02:33;;;;;;;0.10;0.10;;;27.50;93.40;;;;;;4896969;29;20322;-75
2021/06/29 11:05:03;;;;;;;0.10;0.10;;;27.60;93.70;;;;;;4896984;29;20293;-75
2021/06/29 11:07:44;;;;;;;0.10;0.10;;;27.70;93.40;;;;;;4897196;29;20214;-75
2021/06/29 11:10:26;;;;;;;0.10;0.10;;;27.90;92.90;;;;;;4897104;29;20624;-75
2021/06/29 11:12:56;;;;;;;0.10;0.10;;;28.00;92.20;;;;;;4896962;29;20258;-74
2021/06/29 11:15:44;;;;;;;0.10;0.10;;;28.00;92.30;;;;;;4896700;29;20805;-75
2021/06/29 11:18:14;;;;;;;0.10;0.10;;;28.20;92.70;;;;;;4897126;29;20242;-75
2021/06/29 11:20:45;;;;;;;0.10;0.10;;;28.30;92.50;;;;;;4897124;29;20227;-75
2021/06/29 11:23:18;;;;;;;0.10;0.10;;;28.60;92.30;;;;;;4896875;29;20207;-75
2021/06/29 11:25:54;;;;;;;0.10;0.10;;;28.70;91.20;;;;;;4896783;29;20215;-75
2021/06/29 11:28:44;;;;;;;0.10;0.10;;;28.60;91.50;;;;;;4897053;29;20206;-75
2021/06/29 11:31:25;;;;;;;0.10;0.10;;;28.40;91.80;;;;;;4896850;29;20231;-75
2021/06/29 11:33:56;;;;;;;0.10;0.10;;;28.20;91.80;;;;;;4896955;29;20211;-75
2021/06/29 11:36:46;;;;;;;0.10;0.10;;;28.20;92.50;;;;;;4896605;29;20267;-75
2021/06/29 11:39:37;;;;;;;0.10;0.10;;;28.10;92.60;;;;;;4896431;29;20219;-75
2021/06/29 11:42:30;;;;;;;0.10;0.10;;;27.90;92.30;;;;;;4896992;29;20286;-75
2021/06/29 11:45:07;;;;;;;0.10;0.10;;;27.80;92.20;;;;;;4899272;29;20207;-75
2021/06/29 11:47:40;;;;;;;0.10;0.10;;;27.90;92.70;;;;;;4900359;29;20240;-75
2021/06/29 11:50:18;;;;;;;0.10;0.10;;;28.00;92.10;;;;;;4900254;29;20238;-76
2021/06/29 11:52:46;;;;;;;0.10;0.10;;;28.00;92.80;;;;;;4900760;29;20568;-75
2021/06/29 11:55:18;;;;;;;0.10;0.10;;;28.00;93.10;;;;;;4900193;29;20211;-76
2021/06/29 11:57:50;;;;;;;0.10;0.10;;;27.80;93.20;;;;;;4900320;29;20211;-75
2021/06/29 12:00:22;;;;;;;0.10;0.10;;;27.50;98.90;;;;;;4900027;29;20736;-75
2021/06/29 12:02:53;;;;;;;0.10;0.10;;;27.50;93.60;;;;;;4900160;29;20208;-75
2021/06/29 12:05:22;;;;;;;0.10;0.10;;;27.50;93.80;;;;;;4899067;29;20239;-75
2021/06/29 12:07:52;;;;;;;0.10;0.10;;;27.40;93.80;;;;;;4900146;29;20218;-75
2021/06/29 12:10:22;;;;;;;0.10;0.10;;;27.00;99.90;;;;;;4900098;29;20203;-75
2021/06/29 12:12:52;;;;;;;0.10;0.10;;;27.20;94.40;;;;;;4907390;29;20258;-74
2021/06/29 12:15:22;;;;;;;0.10;0.10;;;27.10;94.60;;;;;;4905613;29;20258;-75
2021/06/29 12:17:53;;;;;;;0.10;0.10;;;27.10;94.80;;;;;;4899730;29;20200;-75
2021/06/29 12:20:24;;;;;;;0.10;0.10;;;27.20;99.90;;;;;;4897784;29;20227;-75
2021/06/29 12:22:52;;;;;;;0.10;0.10;;;27.00;96.60;;;;;;4898017;29;20216;-75
2021/06/29 12:25:23;;;;;;;0.10;0.10;;;26.80;96.20;;;;;;4898488;29;20211;-73
2021/06/29 12:27:54;;;;;;;0.10;0.10;;;26.80;96.60;;;;;;4899988;29;20199;-74
2021/06/29 12:30:31;;;;;;;0.10;0.10;;;26.60;99.90;;;;;;4910006;29;20199;-74
2021/06/29 12:33:00;;;;;;;0.20;0.20;;;26.70;96.30;;;;;;4918826;29;20210;-74
2021/06/29 12:35:31;;;;;;;0.10;0.10;;;26.80;99.90;;;;;;4913643;29;20310;-74
2021/06/29 12:38:04;;;;;;;0.10;0.10;;;26.70;99.90;;;;;;4899642;29;20614;-74
2021/06/29 12:40:34;;;;;;;0.10;0.10;;;27.00;99.90;;;;;;4903346;29;20216;-75
2021/06/29 12:43:21;;;;;;;0.15;0.15;;;26.80;96.70;;;;;;4911732;29;20199;-75
2021/06/29 12:45:49;;;;;;;0.10;0.10;;;26.70;97.40;;;;;;4905438;29;20821;-74
2021/06/29 12:48:18;;;;;;;0.10;0.10;;;26.60;98.80;;;;;;4917971;29;20739;-74
2021/06/29 12:50:57;;;;;;;0.10;0.10;;;26.60;99.00;;;;;;4916682;29;20285;-74
2021/06/29 12:53:25;;;;;;;0.10;0.10;;;26.60;98.30;;;;;;4912610;29;20199;-77
2021/06/29 12:56:04;;;;;;;0.10;0.10;;;26.50;98.80;;;;;;4899948;29;20255;-77
2021/06/29 12:58:34;;;;;;;0.10;0.10;;;26.50;98.70;;;;;;4918508;29;20540;-74
2021/06/29 13:01:02;;;;;;;0.10;0.10;;;26.40;98.90;;;;;;4917658;29;20306;-75
2021/06/29 13:03:33;;;;;;;0.10;0.10;;;26.30;99.90;;;;;;4918112;29;20227;-74